Time;durP1;ratioP1;P1;durP2;ratioP2;P2;SDS_P1;SDS_P2;PMS_P1;PMS_P2;Temp;Humidity;BMP_temperature;BMP_pressure;BME280_temperature;BME280_humidity;BME280_pressure;Samples;Min_cycle;Max_cycle;Signal;HPM_P1;HPM_P2
2023/05/19 00:01:13;;;;;;;12.88;3.70;;;8.00;99.90;;;;;;5039661;28;20551;-81
2023/05/19 00:03:53;;;;;;;8.40;3.53;;;8.00;99.90;;;;;;5071729;28;20497;-81
2023/05/19 00:06:30;;;;;;;9.02;3.40;;;7.90;99.90;;;;;;5088327;28;20130;-81
2023/05/19 00:09:02;;;;;;;9.65;3.33;;;8.00;99.90;;;;;;5072901;28;20494;-81
2023/05/19 00:11:29;;;;;;;9.68;3.70;;;8.00;99.90;;;;;;5108627;28;20037;-81
2023/05/19 00:13:58;;;;;;;9.00;3.22;;;8.00;99.90;;;;;;5092149;28;20037;-81
2023/05/19 00:16:25;;;;;;;9.95;4.00;;;8.00;99.90;;;;;;5091908;28;20067;-81
2023/05/19 00:18:53;;;;;;;11.20;3.38;;;7.90;99.90;;;;;;5092243;28;20040;-81
2023/05/19 00:21:19;;;;;;;9.48;3.42;;;7.90;99.90;;;;;;5091694;28;20040;-81
2023/05/19 00:23:46;;;;;;;8.93;3.60;;;7.90;99.90;;;;;;5071956;28;20043;-81
2023/05/19 00:26:13;;;;;;;10.82;3.50;;;7.90;99.90;;;;;;5039502;28;20044;-81
2023/05/19 00:28:40;;;;;;;10.00;3.30;;;7.90;99.90;;;;;;5071354;28;20645;-81
2023/05/19 00:31:06;;;;;;;7.28;3.22;;;7.80;99.90;;;;;;5051433;28;20086;-81
2023/05/19 00:33:33;;;;;;;7.65;3.05;;;7.90;99.90;;;;;;5091196;28;20040;-80
2023/05/19 00:36:02;;;;;;;15.30;3.28;;;7.80;99.90;;;;;;5091697;28;20043;-81
2023/05/19 00:38:34;;;;;;;7.80;3.20;;;7.80;99.90;;;;;;5091600;28;20044;-80
2023/05/19 00:41:02;;;;;;;14.80;3.90;;;7.80;99.90;;;;;;5091519;28;20052;-81
2023/05/19 00:43:29;;;;;;;12.52;3.47;;;7.80;99.90;;;;;;5081465;28;20045;-81
2023/05/19 00:45:56;;;;;;;13.23;3.67;;;7.80;99.90;;;;;;5068727;28;20036;-81
2023/05/19 00:48:24;;;;;;;12.13;3.53;;;7.90;99.90;;;;;;5091433;28;20043;-80
2023/05/19 00:50:53;;;;;;;13.00;3.38;;;7.90;99.90;;;;;;5058593;28;20036;-81
2023/05/19 00:53:22;;;;;;;11.45;3.40;;;7.90;99.90;;;;;;5090877;28;20139;-81
2023/05/19 00:55:48;;;;;;;11.18;3.45;;;7.90;99.90;;;;;;5091221;28;20032;-81
2023/05/19 00:58:16;;;;;;;9.05;3.15;;;7.80;99.90;;;;;;5091164;28;20040;-81
2023/05/19 01:00:43;;;;;;;7.53;2.70;;;7.80;99.90;;;;;;5090963;28;20052;-81
2023/05/19 01:03:10;;;;;;;11.05;3.30;;;7.80;99.90;;;;;;5089407;28;20047;-81
2023/05/19 01:05:43;;;;;;;9.32;3.35;;;7.80;99.90;;;;;;5074513;28;20048;-80
2023/05/19 01:08:10;;;;;;;8.50;2.90;;;7.70;99.90;;;;;;5091291;28;20033;-81
2023/05/19 01:10:36;;;;;;;10.90;3.17;;;7.70;99.90;;;;;;5074176;28;20110;-81
2023/05/19 01:13:04;;;;;;;8.23;3.05;;;7.70;99.90;;;;;;5074361;28;20068;-81
2023/05/19 01:15:52;;;;;;;9.20;3.03;;;7.70;99.90;;;;;;5090095;28;20051;-81
2023/05/19 01:18:30;;;;;;;14.93;3.70;;;7.70;99.90;;;;;;5091059;28;20090;-80
2023/05/19 01:21:22;;;;;;;12.15;3.38;;;7.60;99.90;;;;;;5091076;28;20034;-81
2023/05/19 01:24:21;;;;;;;14.65;3.58;;;7.60;99.90;;;;;;5084556;28;20106;-81
2023/05/19 01:27:22;;;;;;;9.38;2.97;;;7.60;99.90;;;;;;5086728;28;20595;-80
2023/05/19 01:30:17;;;;;;;12.95;3.35;;;7.60;99.90;;;;;;5069411;28;20061;-81
2023/05/19 01:32:44;;;;;;;11.70;3.10;;;7.70;99.90;;;;;;5086683;28;20064;-81
2023/05/19 01:35:14;;;;;;;8.93;3.22;;;7.60;99.90;;;;;;5070023;28;20037;-81
2023/05/19 01:37:42;;;;;;;10.25;3.05;;;7.60;99.90;;;;;;5100165;28;20508;-81
2023/05/19 01:40:09;;;;;;;7.25;2.88;;;7.70;99.90;;;;;;5073629;28;20049;-81
2023/05/19 01:42:38;;;;;;;8.52;2.97;;;7.70;99.90;;;;;;5065953;28;20500;-81
2023/05/19 01:45:09;;;;;;;7.97;3.03;;;7.70;99.90;;;;;;5089955;28;20492;-81
2023/05/19 01:47:38;;;;;;;7.90;3.25;;;7.60;99.90;;;;;;5074494;28;20047;-81
2023/05/19 01:50:05;;;;;;;10.68;3.13;;;7.70;99.90;;;;;;5061403;28;20041;-81
2023/05/19 01:52:32;;;;;;;10.15;3.30;;;7.60;99.90;;;;;;5069997;28;20056;-80
2023/05/19 01:55:00;;;;;;;14.65;3.20;;;7.60;99.90;;;;;;5070954;28;20447;-81
2023/05/19 01:57:47;;;;;;;9.68;3.30;;;7.60;99.90;;;;;;5053989;28;20049;-81
2023/05/19 02:00:48;;;;;;;11.32;3.05;;;7.60;99.90;;;;;;5073831;28;20068;-81
2023/05/19 02:03:20;;;;;;;10.27;2.75;;;7.60;99.90;;;;;;5069892;28;20044;-81
2023/05/19 02:06:11;;;;;;;9.45;3.10;;;7.60;99.90;;;;;;5086349;28;20052;-81
2023/05/19 02:08:46;;;;;;;10.88;2.95;;;7.60;99.90;;;;;;5069508;28;20053;-81
2023/05/19 02:11:26;;;;;;;9.07;3.80;;;7.50;99.90;;;;;;5086399;28;20078;-81
2023/05/19 02:13:55;;;;;;;8.68;2.92;;;7.50;99.90;;;;;;5069427;28;20048;-81
2023/05/19 02:16:27;;;;;;;7.75;2.50;;;7.60;99.90;;;;;;5069758;28;20086;-81
2023/05/19 02:18:55;;;;;;;8.27;3.15;;;7.50;99.90;;;;;;5052965;28;20413;-81
2023/05/19 02:21:21;;;;;;;6.88;2.92;;;7.50;99.90;;;;;;5068493;28;20048;-81
2023/05/19 02:23:49;;;;;;;7.60;2.67;;;7.50;99.90;;;;;;5071646;28;20620;-81
2023/05/19 02:26:16;;;;;;;12.25;3.03;;;7.40;99.90;;;;;;5089311;28;20401;-81
2023/05/19 02:28:43;;;;;;;9.13;3.08;;;7.40;99.90;;;;;;5072069;28;20040;-81
2023/05/19 02:31:09;;;;;;;11.50;3.33;;;7.40;99.90;;;;;;5056262;28;20036;-81
2023/05/19 02:33:36;;;;;;;10.63;3.60;;;7.40;99.90;;;;;;5061028;28;20037;-81
2023/05/19 02:36:03;;;;;;;14.65;3.55;;;7.40;99.90;;;;;;5052406;28;20497;-81
2023/05/19 02:38:30;;;;;;;9.52;3.20;;;7.40;99.90;;;;;;5069022;28;20032;-81
2023/05/19 02:40:57;;;;;;;10.32;3.50;;;7.40;99.90;;;;;;5052582;28;20044;-81
2023/05/19 02:43:24;;;;;;;7.60;3.03;;;7.40;99.90;;;;;;5052809;28;20033;-81
2023/05/19 02:45:50;;;;;;;9.95;3.20;;;7.40;99.90;;;;;;5069218;28;20041;-81
2023/05/19 02:48:17;;;;;;;10.60;3.42;;;7.40;99.90;;;;;;5052618;28;20124;-80
2023/05/19 02:50:44;;;;;;;10.65;3.33;;;7.30;99.90;;;;;;5052703;28;20047;-80
2023/05/19 02:53:10;;;;;;;10.75;3.00;;;7.30;99.90;;;;;;5052692;28;20049;-81
2023/05/19 02:55:37;;;;;;;8.20;3.20;;;7.30;99.90;;;;;;5073768;28;20059;-82
2023/05/19 02:58:04;;;;;;;8.73;3.10;;;7.30;99.90;;;;;;5056188;28;20036;-81
2023/05/19 03:00:31;;;;;;;11.45;3.47;;;7.30;99.90;;;;;;5072828;28;20067;-81
2023/05/19 03:03:01;;;;;;;7.30;3.47;;;7.30;99.90;;;;;;5088684;28;20040;-81
2023/05/19 03:05:29;;;;;;;8.55;3.50;;;7.30;99.90;;;;;;5089840;28;20087;-81
2023/05/19 03:07:55;;;;;;;9.05;3.33;;;7.30;99.90;;;;;;5067937;28;20515;-80
2023/05/19 03:10:22;;;;;;;9.07;3.72;;;7.20;99.90;;;;;;5038930;28;20049;-81
2023/05/19 03:12:49;;;;;;;9.35;3.10;;;7.20;99.90;;;;;;5105092;28;20082;-81
2023/05/19 03:15:17;;;;;;;11.90;3.95;;;7.20;99.90;;;;;;5072414;28;20041;-80
2023/05/19 03:17:44;;;;;;;10.48;3.67;;;7.20;99.90;;;;;;5088905;28;20040;-80
2023/05/19 03:20:11;;;;;;;13.38;3.63;;;7.20;99.90;;;;;;5055357;28;20051;-81
2023/05/19 03:22:37;;;;;;;11.55;3.58;;;7.20;99.90;;;;;;5052641;28;20073;-81
2023/05/19 03:25:04;;;;;;;12.98;4.45;;;7.20;99.90;;;;;;5035570;28;20045;-81
2023/05/19 03:27:31;;;;;;;11.57;3.72;;;7.30;99.90;;;;;;5038983;28;20079;-81
2023/05/19 03:29:58;;;;;;;12.02;4.07;;;7.30;99.90;;;;;;5071942;28;20071;-81
2023/05/19 03:32:24;;;;;;;11.15;3.85;;;7.20;99.90;;;;;;5059185;28;20404;-80
2023/05/19 03:34:51;;;;;;;8.73;3.83;;;7.20;99.90;;;;;;5091727;28;20040;-81
2023/05/19 03:37:18;;;;;;;11.20;4.15;;;7.20;99.90;;;;;;5101480;28;20131;-80
2023/05/19 03:39:44;;;;;;;14.25;3.72;;;7.10;99.90;;;;;;5075693;28;20050;-80
2023/05/19 03:42:11;;;;;;;10.60;3.25;;;7.10;99.90;;;;;;5059758;28;20098;-81
2023/05/19 03:44:38;;;;;;;11.63;3.97;;;7.10;99.90;;;;;;5091239;28;20037;-81
2023/05/19 03:47:05;;;;;;;11.50;3.22;;;7.10;99.90;;;;;;5075830;28;20063;-80
2023/05/19 03:49:31;;;;;;;8.57;3.72;;;7.00;99.90;;;;;;5059186;28;20127;-81
2023/05/19 03:51:58;;;;;;;8.10;3.47;;;6.90;99.90;;;;;;5059052;28;20040;-80
2023/05/19 03:54:26;;;;;;;9.10;3.83;;;6.90;99.90;;;;;;5091710;28;20056;-80
2023/05/19 03:56:53;;;;;;;10.52;3.95;;;6.90;99.90;;;;;;5072384;28;20044;-80
2023/05/19 03:59:19;;;;;;;8.75;3.78;;;6.90;99.90;;;;;;5055738;28;20041;-81
2023/05/19 04:01:46;;;;;;;13.27;4.18;;;6.90;99.90;;;;;;5055471;28;20049;-81
2023/05/19 04:04:13;;;;;;;8.85;3.83;;;6.80;99.90;;;;;;5071453;28;20056;-81
2023/05/19 04:06:39;;;;;;;8.23;3.65;;;6.80;99.90;;;;;;5039215;28;20702;-82
2023/05/19 04:09:13;;;;;;;11.05;4.18;;;6.80;99.90;;;;;;5055572;28;20041;-81
2023/05/19 04:11:40;;;;;;;12.27;3.75;;;6.80;99.90;;;;;;5055591;28;20037;-81
2023/05/19 04:14:07;;;;;;;9.35;3.28;;;6.80;99.90;;;;;;5071391;28;20041;-81
2023/05/19 04:16:34;;;;;;;11.43;3.78;;;6.80;99.90;;;;;;5055058;28;20071;-81
2023/05/19 04:19:01;;;;;;;10.63;4.13;;;6.80;99.90;;;;;;5053346;28;20040;-81
2023/05/19 04:21:28;;;;;;;9.85;3.75;;;6.80;99.90;;;;;;5074968;28;20049;-81
2023/05/19 04:23:55;;;;;;;9.13;4.03;;;6.90;99.90;;;;;;5058267;28;20036;-81
2023/05/19 04:26:23;;;;;;;8.43;4.35;;;6.90;99.90;;;;;;5058659;28;20625;-82
2023/05/19 04:28:50;;;;;;;10.77;3.92;;;6.90;99.90;;;;;;5080956;28;20126;-81
2023/05/19 04:31:17;;;;;;;8.32;4.22;;;6.90;99.90;;;;;;5060866;28;20044;-81
2023/05/19 04:33:44;;;;;;;6.95;3.72;;;6.90;99.90;;;;;;5090909;28;20040;-80
2023/05/19 04:36:12;;;;;;;12.82;4.13;;;6.90;99.90;;;;;;5068252;28;20086;-81
2023/05/19 04:38:39;;;;;;;8.43;4.03;;;6.90;99.90;;;;;;5089169;28;20043;-81
2023/05/19 04:41:09;;;;;;;7.03;3.58;;;7.10;99.90;;;;;;5107188;28;20032;-81
2023/05/19 04:43:40;;;;;;;7.05;3.55;;;7.00;99.90;;;;;;5073326;28;20037;-82
2023/05/19 04:46:09;;;;;;;9.35;3.92;;;7.00;99.90;;;;;;5065522;28;20033;-81
2023/05/19 04:48:36;;;;;;;9.43;4.28;;;7.10;99.90;;;;;;5056276;28;20458;-81
2023/05/19 04:51:03;;;;;;;9.25;3.90;;;7.10;99.90;;;;;;5090375;28;20043;-81
2023/05/19 04:53:30;;;;;;;9.98;4.45;;;7.10;99.90;;;;;;5057657;28;20078;-82
2023/05/19 04:55:57;;;;;;;9.98;4.32;;;7.20;99.90;;;;;;5073856;28;20044;-81
2023/05/19 04:58:24;;;;;;;7.45;4.22;;;7.30;99.90;;;;;;5087356;28;20033;-82
2023/05/19 05:00:54;;;;;;;8.20;3.65;;;7.30;99.90;;;;;;5039247;28;20052;-81
2023/05/19 05:03:24;;;;;;;9.45;4.28;;;7.30;99.90;;;;;;5092971;28;20094;-81
2023/05/19 05:05:51;;;;;;;8.13;4.20;;;7.40;99.90;;;;;;5080921;28;20048;-82
2023/05/19 05:08:22;;;;;;;9.48;4.15;;;7.40;99.90;;;;;;5073697;28;20040;-81
2023/05/19 05:10:52;;;;;;;10.35;4.20;;;7.50;99.90;;;;;;5058356;28;20072;-82
2023/05/19 05:13:21;;;;;;;8.35;3.85;;;7.60;99.90;;;;;;5088079;28;20032;-81
2023/05/19 05:15:49;;;;;;;8.55;4.03;;;7.70;99.90;;;;;;5089881;28;20081;-81
2023/05/19 05:18:16;;;;;;;9.02;4.50;;;7.70;99.90;;;;;;5090007;28;20066;-82
2023/05/19 05:20:43;;;;;;;10.20;3.83;;;7.80;99.90;;;;;;5086206;28;20040;-82
2023/05/19 05:23:13;;;;;;;8.35;4.32;;;7.80;99.90;;;;;;5073377;28;20036;-81
2023/05/19 05:25:41;;;;;;;14.60;4.70;;;7.90;99.90;;;;;;5072955;28;20052;-82
2023/05/19 05:28:08;;;;;;;10.18;4.82;;;7.90;99.90;;;;;;5085939;28;20505;-81
2023/05/19 05:30:35;;;;;;;11.88;4.57;;;8.00;99.90;;;;;;5104737;28;20412;-82
2023/05/19 05:33:02;;;;;;;13.98;4.68;;;8.10;99.90;;;;;;5089908;28;20042;-81
2023/05/19 05:35:28;;;;;;;9.00;4.50;;;8.10;99.90;;;;;;5086699;28;20040;-82
2023/05/19 05:37:55;;;;;;;11.13;5.03;;;8.20;99.90;;;;;;5090835;28;20055;-82
2023/05/19 05:40:22;;;;;;;9.70;4.90;;;8.30;99.90;;;;;;5069712;28;20049;-81
2023/05/19 05:42:49;;;;;;;9.20;5.20;;;8.30;99.90;;;;;;5057130;28;20390;-81
2023/05/19 05:45:16;;;;;;;12.32;4.82;;;8.40;99.90;;;;;;5089153;28;20049;-81
2023/05/19 05:47:42;;;;;;;10.23;4.35;;;8.50;99.90;;;;;;5068136;28;20053;-81
2023/05/19 05:50:10;;;;;;;9.90;4.57;;;8.50;99.90;;;;;;5051046;28;20063;-80
2023/05/19 05:52:38;;;;;;;16.25;5.28;;;8.60;99.90;;;;;;5062066;28;20044;-83
2023/05/19 05:55:05;;;;;;;8.00;4.40;;;8.70;99.90;;;;;;5077139;28;20460;-81
2023/05/19 05:57:34;;;;;;;8.43;3.95;;;8.80;99.90;;;;;;5075696;28;20044;-81
2023/05/19 06:00:01;;;;;;;14.40;4.82;;;8.90;99.90;;;;;;5070082;28;20489;-81
2023/05/19 06:02:28;;;;;;;14.23;4.53;;;8.90;99.90;;;;;;5089799;28;20083;-82
2023/05/19 06:04:55;;;;;;;8.15;4.10;;;9.00;99.90;;;;;;5090166;28;20048;-81
2023/05/19 06:07:23;;;;;;;12.02;4.80;;;9.10;99.90;;;;;;5056750;28;20044;-81
2023/05/19 06:09:49;;;;;;;14.00;4.57;;;9.20;99.90;;;;;;5070821;28;20049;-82
2023/05/19 06:12:16;;;;;;;11.57;4.60;;;9.20;99.90;;;;;;5042784;28;20041;-81
2023/05/19 06:14:43;;;;;;;12.27;4.38;;;9.30;99.90;;;;;;5090117;28;20048;-81
2023/05/19 06:17:10;;;;;;;7.53;4.30;;;9.40;99.90;;;;;;5074083;28;20549;-81
2023/05/19 06:19:36;;;;;;;10.52;4.55;;;9.50;99.90;;;;;;5079824;28;20032;-81
2023/05/19 06:22:03;;;;;;;18.40;5.43;;;9.60;99.90;;;;;;5073824;28;20052;-82
2023/05/19 06:24:30;;;;;;;11.32;4.10;;;9.70;99.90;;;;;;5089799;28;20040;-82
2023/05/19 06:26:56;;;;;;;10.82;4.45;;;9.80;99.90;;;;;;5072979;28;20447;-80
2023/05/19 06:29:23;;;;;;;10.30;4.18;;;9.90;99.90;;;;;;5073247;28;20037;-82
2023/05/19 06:31:50;;;;;;;11.52;4.15;;;10.10;99.90;;;;;;5073155;28;20048;-82
2023/05/19 06:34:16;;;;;;;10.90;3.95;;;10.20;99.90;;;;;;5089886;28;20044;-82
2023/05/19 06:36:43;;;;;;;13.82;4.22;;;10.30;99.90;;;;;;5056564;28;20036;-82
2023/05/19 06:39:10;;;;;;;14.15;4.50;;;10.30;99.90;;;;;;5056288;28;20096;-81
2023/05/19 06:41:37;;;;;;;9.20;3.85;;;10.40;99.90;;;;;;5089313;28;20055;-81
2023/05/19 06:44:05;;;;;;;8.30;4.00;;;10.40;99.90;;;;;;5073478;28;20554;-80
2023/05/19 06:46:32;;;;;;;8.00;4.22;;;10.50;99.90;;;;;;5059646;28;20045;-82
2023/05/19 06:48:59;;;;;;;9.93;4.07;;;10.70;99.90;;;;;;5070300;28;20044;-82
2023/05/19 06:51:25;;;;;;;11.85;3.80;;;10.80;99.90;;;;;;5056542;28;20087;-82
2023/05/19 06:53:52;;;;;;;6.70;3.42;;;10.90;99.90;;;;;;5056482;28;20047;-81
2023/05/19 06:56:20;;;;;;;8.98;3.30;;;11.10;99.90;;;;;;5105746;28;20084;-82
2023/05/19 06:58:47;;;;;;;11.65;3.78;;;11.20;99.90;;;;;;5073426;28;20511;-82
2023/05/19 07:01:13;;;;;;;9.70;3.25;;;11.30;99.90;;;;;;5057655;28;20041;-82
2023/05/19 07:03:40;;;;;;;8.90;3.40;;;11.40;99.90;;;;;;5056273;28;20130;-80
2023/05/19 07:06:07;;;;;;;8.68;3.50;;;11.50;99.90;;;;;;5057378;28;20044;-81
2023/05/19 07:08:35;;;;;;;7.65;3.33;;;11.70;99.90;;;;;;5045049;28;20500;-80
2023/05/19 07:11:02;;;;;;;10.95;3.50;;;11.80;99.90;;;;;;5057088;28;20055;-81
2023/05/19 07:13:29;;;;;;;10.35;3.20;;;11.80;99.90;;;;;;5057180;28;20123;-82
2023/05/19 07:15:56;;;;;;;13.40;3.13;;;11.90;99.90;;;;;;5075392;28;20067;-83
2023/05/19 07:18:24;;;;;;;6.65;3.08;;;12.10;99.90;;;;;;5072928;28;20053;-82
2023/05/19 07:20:52;;;;;;;7.85;3.05;;;12.20;99.90;;;;;;5073078;28;20048;-82
2023/05/19 07:23:19;;;;;;;10.10;2.90;;;12.30;99.90;;;;;;5073079;28;20040;-81
2023/05/19 07:25:46;;;;;;;7.90;2.40;;;12.40;99.90;;;;;;5057172;28;20099;-81
2023/05/19 07:28:15;;;;;;;6.85;2.60;;;12.50;99.90;;;;;;5073360;28;20084;-81
2023/05/19 07:30:42;;;;;;;7.55;2.83;;;12.60;99.90;;;;;;5056296;28;20478;-82
2023/05/19 07:33:09;;;;;;;6.88;2.40;;;12.70;99.90;;;;;;5041903;28;20039;-80
2023/05/19 07:35:36;;;;;;;12.55;2.90;;;12.80;99.90;;;;;;5048177;28;20115;-81
2023/05/19 07:38:03;;;;;;;7.53;2.55;;;12.90;99.90;;;;;;5073356;28;20036;-81
2023/05/19 07:40:29;;;;;;;5.25;2.33;;;13.00;99.90;;;;;;5074783;28;20040;-81
2023/05/19 07:42:56;;;;;;;7.60;2.47;;;13.10;99.90;;;;;;5040298;28;20037;-81
2023/05/19 07:45:23;;;;;;;5.88;2.53;;;13.20;99.90;;;;;;5058916;28;20404;-81
2023/05/19 07:47:50;;;;;;;7.30;2.42;;;13.30;99.90;;;;;;5054302;28;20129;-81
2023/05/19 07:50:16;;;;;;;6.43;2.13;;;13.40;99.90;;;;;;5091647;28;20041;-80
2023/05/19 07:52:43;;;;;;;5.88;2.08;;;13.50;99.90;;;;;;5076159;28;20032;-81
2023/05/19 07:55:10;;;;;;;7.95;2.17;;;13.60;99.90;;;;;;5075574;28;20455;-81
2023/05/19 07:57:37;;;;;;;5.80;2.03;;;13.70;99.90;;;;;;5080858;28;20108;-81
2023/05/19 08:00:08;;;;;;;7.00;2.20;;;13.80;99.90;;;;;;5071998;28;20123;-81
2023/05/19 08:02:35;;;;;;;8.38;2.15;;;13.80;99.90;;;;;;5072516;28;20045;-82
2023/05/19 08:05:02;;;;;;;8.32;1.77;;;13.80;99.90;;;;;;5072257;28;20045;-82
2023/05/19 08:07:28;;;;;;;6.07;1.95;;;13.80;99.90;;;;;;5039343;28;20176;-82
2023/05/19 08:09:56;;;;;;;7.20;2.13;;;13.90;99.90;;;;;;5059790;28;20040;-82
2023/05/19 08:12:23;;;;;;;5.18;2.20;;;13.90;99.90;;;;;;5052387;28;20447;-82
2023/05/19 08:14:51;;;;;;;9.30;1.90;;;14.00;99.90;;;;;;5045707;28;20095;-82
2023/05/19 08:17:18;;;;;;;6.72;1.98;;;14.00;99.90;;;;;;5071668;28;20044;-82
2023/05/19 08:19:45;;;;;;;6.53;1.90;;;14.10;99.90;;;;;;5088895;28;20044;-82
2023/05/19 08:22:11;;;;;;;5.70;1.80;;;14.30;99.90;;;;;;5039772;28;20128;-82
2023/05/19 08:24:41;;;;;;;7.78;1.90;;;14.30;99.90;;;;;;5073473;28;20044;-83
2023/05/19 08:27:08;;;;;;;8.10;2.13;;;14.40;99.90;;;;;;5059850;28;20086;-82
2023/05/19 08:29:35;;;;;;;7.50;2.03;;;14.50;99.90;;;;;;5065035;28;20068;-82
2023/05/19 08:32:02;;;;;;;4.90;1.80;;;14.60;99.90;;;;;;5042446;28;20507;-81
2023/05/19 08:34:29;;;;;;;5.60;1.73;;;14.80;99.90;;;;;;5076725;28;20051;-82
2023/05/19 08:36:56;;;;;;;6.15;1.77;;;14.90;99.90;;;;;;5056809;28;20045;-82
2023/05/19 08:39:25;;;;;;;6.45;1.70;;;14.90;99.90;;;;;;5054028;28;20071;-82
2023/05/19 08:41:53;;;;;;;4.90;1.90;;;15.00;99.90;;;;;;5073521;28;20123;-82
2023/05/19 08:44:20;;;;;;;4.53;1.52;;;15.00;99.90;;;;;;5080233;28;20040;-82
2023/05/19 08:46:48;;;;;;;4.85;1.80;;;15.10;99.90;;;;;;5082078;28;20037;-82
2023/05/19 08:49:21;;;;;;;7.28;2.00;;;15.20;99.90;;;;;;5081269;28;20036;-82
2023/05/19 08:52:07;;;;;;;6.40;1.65;;;15.30;99.90;;;;;;5093559;28;20037;-82
2023/05/19 08:54:44;;;;;;;5.70;1.90;;;15.40;99.90;;;;;;5085636;28;20413;-81
2023/05/19 08:57:12;;;;;;;7.38;2.03;;;15.50;99.90;;;;;;5088320;28;20128;-81
2023/05/19 08:59:39;;;;;;;6.93;1.77;;;15.50;99.90;;;;;;5063975;28;20123;-82
2023/05/19 09:02:10;;;;;;;4.63;1.60;;;15.60;99.90;;;;;;5050184;28;20052;-82
2023/05/19 09:04:38;;;;;;;8.43;1.70;;;15.70;99.90;;;;;;5087465;28;20052;-80
2023/05/19 09:07:05;;;;;;;4.32;1.70;;;15.80;99.90;;;;;;5070851;28;20386;-80
2023/05/19 09:09:32;;;;;;;6.18;1.83;;;16.00;99.90;;;;;;5054155;28;20087;-80
2023/05/19 09:11:58;;;;;;;6.97;1.85;;;16.00;99.90;;;;;;5038339;28;20128;-83
2023/05/19 09:14:25;;;;;;;4.43;1.85;;;16.10;99.90;;;;;;5038714;28;20393;-85
2023/05/19 09:16:53;;;;;;;4.10;1.50;;;16.10;99.90;;;;;;5038513;28;20033;-83
2023/05/19 09:19:20;;;;;;;5.70;1.88;;;16.10;99.90;;;;;;5071657;28;20413;-85
2023/05/19 09:21:59;;;;;;;5.35;2.08;;;16.20;99.90;;;;;;5054627;28;20041;-85
2023/05/19 09:24:27;;;;;;;7.43;2.17;;;16.20;99.20;;;;;;5070520;28;20049;-84
2023/05/19 09:26:57;;;;;;;5.68;1.60;;;16.30;99.90;;;;;;5088002;28;20048;-85
2023/05/19 09:29:24;;;;;;;7.72;1.90;;;16.40;99.90;;;;;;5039194;28;20045;-83
2023/05/19 09:31:53;;;;;;;6.60;2.10;;;16.50;99.90;;;;;;5055230;28;20505;-85
2023/05/19 09:34:21;;;;;;;6.53;1.92;;;16.50;99.90;;;;;;5070769;28;20497;-84
2023/05/19 09:36:52;;;;;;;8.45;1.95;;;16.70;99.90;;;;;;5058677;28;20111;-82
2023/05/19 09:39:20;;;;;;;6.47;1.88;;;16.70;99.90;;;;;;5057104;28;20037;-84
2023/05/19 09:41:53;;;;;;;7.00;1.67;;;16.70;99.90;;;;;;5092655;28;20036;-84
2023/05/19 09:44:20;;;;;;;5.18;2.00;;;16.90;99.90;;;;;;5079202;28;20036;-84
2023/05/19 09:46:51;;;;;;;4.70;1.63;;;17.00;99.90;;;;;;5086300;28;20044;-84
2023/05/19 09:49:23;;;;;;;6.38;1.95;;;17.00;99.90;;;;;;5092932;28;20051;-84
2023/05/19 09:51:54;;;;;;;5.05;1.80;;;17.10;99.90;;;;;;5096756;28;20374;-84
2023/05/19 09:54:22;;;;;;;6.90;2.40;;;17.20;99.80;;;;;;5069105;28;20098;-84
2023/05/19 09:57:03;;;;;;;9.23;1.95;;;17.20;99.90;;;;;;5089058;28;20502;-84
2023/05/19 09:59:30;;;;;;;6.30;2.08;;;17.30;99.60;;;;;;5101000;28;20079;-83
2023/05/19 10:01:58;;;;;;;7.57;2.05;;;17.30;99.40;;;;;;5072820;28;20116;-84
2023/05/19 10:04:26;;;;;;;7.35;2.15;;;17.40;99.40;;;;;;5080187;28;20033;-85
2023/05/19 10:06:54;;;;;;;6.43;2.03;;;17.30;98.90;;;;;;5073678;28;20044;-84
2023/05/19 10:09:25;;;;;;;5.38;1.88;;;17.40;99.30;;;;;;5101681;28;20566;-85
2023/05/19 10:11:54;;;;;;;6.95;1.80;;;17.50;97.90;;;;;;5090022;28;20040;-85
2023/05/19 10:14:26;;;;;;;7.65;1.90;;;17.70;98.80;;;;;;5102021;28;20040;-85
2023/05/19 10:16:57;;;;;;;7.40;1.98;;;17.60;98.50;;;;;;5089413;28;20028;-84
2023/05/19 10:19:25;;;;;;;6.28;1.92;;;17.70;98.30;;;;;;5070245;28;20400;-84
2023/05/19 10:21:53;;;;;;;8.00;2.10;;;17.80;98.50;;;;;;5071124;28;20106;-85
2023/05/19 10:24:20;;;;;;;4.97;2.03;;;18.00;98.90;;;;;;5086932;28;20079;-84
2023/05/19 10:27:18;;;;;;;7.25;1.92;;;18.00;98.80;;;;;;5059143;28;20039;-84
2023/05/19 10:29:50;;;;;;;5.68;1.60;;;18.20;98.70;;;;;;5073411;28;20040;-83
2023/05/19 10:32:22;;;;;;;8.43;2.60;;;18.30;98.20;;;;;;5075774;28;20040;-84
2023/05/19 10:35:29;;;;;;;5.32;2.13;;;18.30;98.10;;;;;;5077292;28;20044;-82
2023/05/19 10:38:32;;;;;;;6.15;2.03;;;18.40;96.40;;;;;;5088875;28;20447;-83
2023/05/19 10:41:08;;;;;;;7.60;2.20;;;18.50;97.40;;;;;;5101304;28;20049;-85
2023/05/19 10:44:12;;;;;;;10.05;2.50;;;18.50;96.50;;;;;;5101257;28;20382;-83
2023/05/19 10:46:41;;;;;;;6.32;2.30;;;18.50;96.60;;;;;;5088608;28;20048;-83
2023/05/19 10:49:08;;;;;;;6.00;2.17;;;18.60;98.50;;;;;;5094257;28;20049;-82
2023/05/19 10:51:35;;;;;;;6.63;1.85;;;18.60;98.20;;;;;;5067035;28;20032;-82
2023/05/19 10:54:12;;;;;;;12.00;2.53;;;18.70;98.30;;;;;;5070428;28;20060;-84
2023/05/19 10:56:41;;;;;;;9.63;2.35;;;18.60;97.00;;;;;;5076202;28;20036;-84
2023/05/19 10:59:29;;;;;;;5.28;1.98;;;18.60;97.80;;;;;;5067143;28;20075;-84
2023/05/19 11:01:56;;;;;;;5.80;1.85;;;18.50;97.10;;;;;;5085572;28;20037;-84
2023/05/19 11:04:49;;;;;;;5.47;1.75;;;18.30;97.90;;;;;;5060732;28;20147;-85
2023/05/19 11:07:21;;;;;;;7.65;2.15;;;18.40;97.80;;;;;;5086402;28;20072;-84
2023/05/19 11:09:51;;;;;;;9.52;2.38;;;18.40;98.00;;;;;;5055323;28;20047;-83
2023/05/19 11:12:22;;;;;;;6.50;2.50;;;18.40;98.00;;;;;;5085228;28;20048;-83
2023/05/19 11:14:53;;;;;;;8.25;2.40;;;18.60;97.00;;;;;;5102242;28;20048;-82
2023/05/19 11:17:21;;;;;;;6.55;2.38;;;18.70;97.80;;;;;;5105706;28;20439;-84
2023/05/19 11:19:56;;;;;;;4.95;2.30;;;18.80;97.70;;;;;;5085793;28;20040;-84
2023/05/19 11:22:24;;;;;;;;;;;18.80;96.90;;;;;;5061734;28;20404;-85
2023/05/19 11:24:53;;;;;;;8.15;2.00;;;18.80;96.40;;;;;;5075511;28;20003;-82
2023/05/19 11:27:20;;;;;;;8.82;2.50;;;18.90;97.80;;;;;;5102338;28;20040;-82
2023/05/19 11:29:48;;;;;;;8.25;2.28;;;19.00;97.20;;;;;;5074967;28;20037;-81
2023/05/19 11:32:15;;;;;;;8.85;2.40;;;18.90;97.70;;;;;;5071612;28;20377;-81
2023/05/19 11:34:43;;;;;;;6.38;1.98;;;18.80;97.70;;;;;;5073150;28;20032;-83
2023/05/19 11:37:10;;;;;;;6.80;2.42;;;18.70;97.80;;;;;;5068914;28;20094;-83
2023/05/19 11:39:38;;;;;;;9.75;2.47;;;18.60;98.30;;;;;;5069471;28;20040;-82
2023/05/19 11:42:11;;;;;;;10.93;2.38;;;18.70;98.50;;;;;;5053165;28;20048;-82
2023/05/19 11:44:39;;;;;;;9.85;2.45;;;18.80;98.00;;;;;;5053793;28;20127;-82
2023/05/19 11:47:07;;;;;;;6.72;1.80;;;18.90;97.80;;;;;;5037757;28;20044;-83
2023/05/19 11:49:33;;;;;;;5.88;2.25;;;19.10;97.40;;;;;;5073005;28;20080;-83
2023/05/19 11:52:01;;;;;;;6.55;2.20;;;19.30;97.60;;;;;;5056045;28;20073;-83
2023/05/19 11:54:33;;;;;;;7.45;2.60;;;19.40;97.10;;;;;;5072517;28;20045;-83
2023/05/19 11:57:01;;;;;;;5.15;1.98;;;19.40;97.00;;;;;;5072758;28;20037;-83
2023/05/19 11:59:32;;;;;;;8.20;2.17;;;19.40;97.00;;;;;;5086206;28;20040;-84
2023/05/19 12:02:17;;;;;;;6.90;2.33;;;19.50;96.80;;;;;;5072665;28;20083;-82
2023/05/19 12:04:45;;;;;;;10.35;2.30;;;19.70;97.20;;;;;;5088584;28;20492;-82
2023/05/19 12:07:12;;;;;;;9.02;2.35;;;19.50;97.10;;;;;;5040208;28;20128;-83
2023/05/19 12:09:39;;;;;;;9.80;2.25;;;19.30;96.80;;;;;;5071982;28;20084;-82
2023/05/19 12:12:07;;;;;;;6.88;1.98;;;19.00;97.00;;;;;;5056267;28;20076;-83
2023/05/19 12:14:34;;;;;;;6.30;2.10;;;19.00;97.40;;;;;;5089154;28;20042;-83
2023/05/19 12:17:16;;;;;;;6.28;2.15;;;19.20;97.10;;;;;;5072247;28;20397;-83
2023/05/19 12:19:43;;;;;;;7.38;2.33;;;19.40;97.00;;;;;;5072175;28;20111;-83
2023/05/19 12:22:12;;;;;;;7.50;2.03;;;19.50;97.10;;;;;;5104619;28;20052;-83
2023/05/19 12:24:40;;;;;;;7.65;2.28;;;19.50;97.30;;;;;;5075286;28;20067;-82
2023/05/19 12:27:25;;;;;;;8.27;1.90;;;19.60;97.30;;;;;;5075977;28;20047;-83
2023/05/19 12:29:53;;;;;;;7.40;3.00;;;19.60;96.50;;;;;;5092366;28;20048;-83
2023/05/19 12:32:24;;;;;;;5.10;1.85;;;19.60;96.90;;;;;;5095702;28;20040;-83
2023/05/19 12:34:51;;;;;;;9.60;2.28;;;19.40;96.50;;;;;;5088311;28;20033;-83
2023/05/19 12:37:18;;;;;;;4.80;1.73;;;19.30;97.30;;;;;;5092313;28;20117;-83
2023/05/19 12:39:47;;;;;;;6.95;2.42;;;19.30;97.20;;;;;;5074811;28;20098;-82
2023/05/19 12:42:15;;;;;;;7.60;2.03;;;19.40;97.20;;;;;;5075397;28;20151;-83
2023/05/19 12:44:46;;;;;;;5.40;2.35;;;19.50;96.70;;;;;;5075809;28;20047;-82
2023/05/19 12:47:15;;;;;;;6.22;1.90;;;19.50;96.40;;;;;;5091837;28;20044;-83
2023/05/19 12:50:02;;;;;;;4.93;1.85;;;19.60;96.20;;;;;;5075474;28;20041;-83
2023/05/19 12:52:32;;;;;;;8.07;2.20;;;19.70;95.10;;;;;;5090591;28;20439;-83
2023/05/19 12:55:04;;;;;;;8.00;2.17;;;19.70;95.50;;;;;;5091314;28;20417;-82
2023/05/19 12:57:37;;;;;;;6.88;1.95;;;19.70;95.50;;;;;;5108803;28;20052;-83
2023/05/19 13:00:06;;;;;;;5.35;2.08;;;19.60;95.30;;;;;;5090015;28;20044;-82